createdAt,value
2022-08-08T00:04:03.147Z,456
2022-08-08T00:09:27.580Z,453
2022-08-08T00:14:57.520Z,448
2022-08-08T00:20:22.809Z,446
2022-08-08T00:25:45.244Z,448
2022-08-08T00:32:16.001Z,449
2022-08-08T00:38:01.230Z,454
2022-08-08T00:43:21.066Z,454
2022-08-08T00:48:59.093Z,456
2022-08-08T00:54:20.213Z,456
2022-08-08T00:59:46.748Z,471
2022-08-08T01:05:05.283Z,482
2022-08-08T01:10:23.503Z,482
2022-08-08T01:15:47.471Z,497
2022-08-08T01:21:12.980Z,500
2022-08-08T01:26:48.054Z,491
2022-08-08T01:32:16.306Z,496
2022-08-08T01:37:51.233Z,485
2022-08-08T01:43:17.155Z,484
2022-08-08T01:48:36.815Z,492
2022-08-08T01:54:07.760Z,480
2022-08-08T02:01:54.962Z,488
2022-08-08T02:07:25.793Z,490
2022-08-08T02:13:09.749Z,509
2022-08-08T02:19:27.129Z,509
2022-08-08T02:26:17.606Z,535
2022-08-08T02:31:43.823Z,537
2022-08-08T02:37:51.633Z,534
2022-08-08T02:44:36.262Z,532
2022-08-08T02:50:01.449Z,565
2022-08-08T02:55:20.716Z,609
2022-08-08T03:00:43.060Z,607
2022-08-08T03:06:09.595Z,585
2022-08-08T03:11:48.252Z,581
2022-08-08T03:17:39.419Z,556
2022-08-08T03:23:00.501Z,503
2022-08-08T03:28:24.199Z,505
2022-08-08T03:33:54.403Z,484
2022-08-08T03:39:21.862Z,499
2022-08-08T03:44:40.263Z,483
2022-08-08T03:50:11.094Z,473
2022-08-08T03:55:57.087Z,463
2022-08-08T04:02:12.304Z,462
2022-08-08T04:08:10.098Z,459
2022-08-08T04:14:04.543Z,456
2022-08-08T04:19:54.827Z,467
2022-08-08T04:25:15.433Z,476
2022-08-08T04:30:36.491Z,490
2022-08-08T04:36:04.029Z,486
2022-08-08T04:41:23.291Z,484
2022-08-08T04:46:41.725Z,509
2022-08-08T04:52:01.279Z,495
2022-08-08T04:57:22.958Z,487
2022-08-08T05:02:42.069Z,497
2022-08-08T05:08:00.803Z,499
2022-08-08T05:13:23.347Z,495
2022-08-08T05:18:44.223Z,489
2022-08-08T05:24:04.388Z,490
2022-08-08T05:29:29.220Z,487
2022-08-08T05:34:49.504Z,485
2022-08-08T05:40:10.835Z,501
2022-08-08T05:45:41.871Z,502
2022-08-08T05:51:25.887Z,512
2022-08-08T05:56:47.256Z,522
2022-08-08T06:02:07.508Z,523
2022-08-08T06:07:28.475Z,523
2022-08-08T06:13:01.482Z,521
2022-08-08T06:18:22.181Z,521
2022-08-08T06:23:49.179Z,524
2022-08-08T06:29:49.619Z,529
2022-08-08T06:36:00.721Z,531
2022-08-08T06:41:29.622Z,530
2022-08-08T06:46:51.811Z,532
2022-08-08T06:52:10.014Z,518
2022-08-08T06:57:44.424Z,507
2022-08-08T07:03:52.825Z,507
2022-08-08T07:10:09.897Z,511
2022-08-08T07:15:32.465Z,499
2022-08-08T07:21:31.213Z,488
2022-08-08T07:26:53.226Z,478
2022-08-08T07:32:16.001Z,480
2022-08-08T07:37:56.704Z,483
2022-08-08T07:43:43.231Z,503
2022-08-08T07:49:12.123Z,477
2022-08-08T07:54:33.504Z,472
2022-08-08T07:59:52.020Z,464
2022-08-08T08:05:14.427Z,445
2022-08-08T08:10:35.445Z,454
2022-08-08T08:15:57.321Z,460
2022-08-08T08:21:18.891Z,471
2022-08-08T08:26:54.876Z,489
2022-08-08T08:32:24.110Z,497
2022-08-08T08:38:18.283Z,501
2022-08-08T08:43:37.851Z,503
2022-08-08T08:49:03.000Z,506
2022-08-08T08:54:25.109Z,506
2022-08-08T08:59:59.108Z,509
2022-08-08T09:05:49.407Z,510
2022-08-08T09:11:14.333Z,506
2022-08-08T09:16:33.616Z,506
2022-08-08T09:22:06.001Z,510
2022-08-08T09:27:42.267Z,514
2022-08-08T09:33:55.317Z,517
2022-08-08T09:39:55.288Z,515
2022-08-08T09:45:15.408Z,514
2022-08-08T09:51:23.034Z,510
2022-08-08T09:56:44.577Z,505
2022-08-08T10:02:12.475Z,500
2022-08-08T10:07:35.737Z,501
2022-08-08T10:12:52.800Z,503
2022-08-08T10:18:31.589Z,508
2022-08-08T10:23:56.195Z,510
2022-08-08T10:29:21.021Z,512
2022-08-08T10:34:58.685Z,517
2022-08-08T10:40:20.087Z,525
2022-08-08T10:45:41.143Z,533
2022-08-08T10:51:13.873Z,538
2022-08-08T10:56:34.492Z,542
2022-08-08T11:02:00.682Z,543
2022-08-08T11:07:40.969Z,548
2022-08-08T11:14:12.153Z,553
2022-08-08T11:19:41.550Z,552
2022-08-08T11:25:14.017Z,554
2022-08-08T11:30:34.479Z,558
2022-08-08T11:36:10.524Z,562
2022-08-08T11:41:32.223Z,563
2022-08-08T11:46:54.322Z,562
2022-08-08T11:52:18.144Z,567
2022-08-08T11:57:51.568Z,566
2022-08-08T12:03:32.377Z,569
2022-08-08T12:08:51.779Z,571
2022-08-08T12:14:11.123Z,576
2022-08-08T12:19:31.471Z,586
2022-08-08T12:25:12.364Z,595
2022-08-08T12:30:33.550Z,603
2022-08-08T12:35:53.090Z,617
2022-08-08T12:41:16.669Z,633
2022-08-08T12:47:33.290Z,643
2022-08-08T12:53:53.290Z,654
2022-08-08T12:59:17.599Z,670
2022-08-08T13:04:41.672Z,667
2022-08-08T13:10:05.968Z,669
2022-08-08T13:15:29.153Z,676
2022-08-08T13:20:48.435Z,681
2022-08-08T13:26:13.047Z,684
2022-08-08T13:31:35.874Z,687
2022-08-08T13:36:57.563Z,879
2022-08-08T13:42:17.593Z,802
2022-08-08T13:47:39.438Z,794
2022-08-08T13:53:22.852Z,801
2022-08-08T13:58:44.402Z,820
2022-08-08T14:04:17.940Z,840
2022-08-08T14:10:02.958Z,852
2022-08-08T14:15:50.800Z,884
2022-08-08T14:21:12.883Z,909
2022-08-08T14:26:40.673Z,920
2022-08-08T14:32:06.440Z,929
2022-08-08T14:37:57.507Z,928
2022-08-08T14:44:02.940Z,934
2022-08-08T14:49:51.712Z,955
2022-08-08T14:56:01.841Z,974
2022-08-08T15:01:24.146Z,989
2022-08-08T15:07:04.370Z,1060
2022-08-08T15:12:56.639Z,1099
2022-08-08T15:18:15.743Z,1112
2022-08-08T15:23:50.823Z,1133
2022-08-08T15:29:12.166Z,1156
2022-08-08T15:34:32.934Z,1168
2022-08-08T15:39:53.433Z,1167
2022-08-08T15:45:13.230Z,1173
2022-08-08T15:50:31.703Z,1189
2022-08-08T15:55:50.475Z,1218
2022-08-08T16:01:09.003Z,1230
2022-08-08T16:06:31.083Z,1257
2022-08-08T16:13:06.629Z,1266
2022-08-08T16:19:04.433Z,1278
2022-08-08T16:24:23.291Z,1291
2022-08-08T16:30:08.469Z,1320
2022-08-08T16:35:54.439Z,1360
2022-08-08T16:41:18.781Z,1387
2022-08-08T16:46:45.051Z,1418
2022-08-08T16:54:59.296Z,1429
2022-08-08T17:01:15.660Z,1422
2022-08-08T17:06:37.846Z,1399
2022-08-08T17:12:02.657Z,1374
2022-08-08T17:17:23.103Z,1354
2022-08-08T17:23:57.978Z,1327
2022-08-08T17:29:54.753Z,1306
2022-08-08T17:35:52.285Z,1278
2022-08-08T17:41:48.668Z,1260
2022-08-08T17:47:24.522Z,1242
2022-08-08T17:52:59.065Z,1222
2022-08-08T17:58:17.831Z,1205
2022-08-08T18:03:37.921Z,1185
2022-08-08T18:08:57.028Z,1168
2022-08-08T18:14:22.170Z,1156
2022-08-08T18:19:45.576Z,1141
2022-08-08T18:26:17.283Z,1124
2022-08-08T18:31:39.158Z,1117
2022-08-08T18:36:57.911Z,1110
2022-08-08T18:42:17.980Z,1090
2022-08-08T18:47:36.200Z,1075
2022-08-08T18:52:54.711Z,1062
2022-08-08T18:58:13.469Z,1051
2022-08-08T19:03:52.162Z,1040
2022-08-08T19:09:48.563Z,1022
2022-08-08T19:15:34.568Z,1007
2022-08-08T19:20:53.129Z,992
2022-08-08T19:26:20.552Z,983
2022-08-08T19:31:49.444Z,975
2022-08-08T19:37:16.265Z,955
2022-08-08T19:42:35.170Z,944
2022-08-08T19:47:54.230Z,942
2022-08-08T19:53:21.873Z,938
2022-08-08T19:59:13.180Z,933
2022-08-08T20:04:31.390Z,919
2022-08-08T20:09:55.610Z,916
2022-08-08T20:15:17.337Z,911
2022-08-08T20:20:35.343Z,811
2022-08-08T20:25:58.707Z,820
2022-08-08T20:31:19.815Z,704
2022-08-08T20:36:39.817Z,722
2022-08-08T20:42:03.704Z,685
2022-08-08T20:47:23.633Z,670
2022-08-08T20:52:44.762Z,637
2022-08-08T20:58:06.345Z,647
2022-08-08T21:03:56.234Z,659
2022-08-08T21:09:19.507Z,563
2022-08-08T21:14:40.133Z,532
2022-08-08T21:19:58.731Z,552
2022-08-08T21:25:17.413Z,584
2022-08-08T21:30:35.647Z,557
2022-08-08T21:36:13.387Z,523
2022-08-08T21:41:43.236Z,500
2022-08-08T21:48:03.017Z,508
2022-08-08T21:54:19.923Z,531
2022-08-08T22:00:40.598Z,529
2022-08-08T22:06:00.165Z,525
2022-08-08T22:11:51.023Z,524
2022-08-08T22:17:41.595Z,519
2022-08-08T22:23:04.444Z,513
2022-08-08T22:29:05.276Z,501
2022-08-08T22:35:23.724Z,503
2022-08-08T22:41:30.123Z,510
2022-08-08T22:46:51.381Z,487
2022-08-08T22:52:13.011Z,480
2022-08-08T22:57:51.520Z,505
2022-08-08T23:03:10.229Z,495
2022-08-08T23:08:35.668Z,496
2022-08-08T23:14:18.120Z,490
2022-08-08T23:19:36.892Z,520
2022-08-08T23:24:55.662Z,517
2022-08-08T23:30:16.983Z,501
2022-08-08T23:35:59.220Z,480
2022-08-08T23:41:29.026Z,483
2022-08-08T23:48:59.305Z,549
2022-08-08T23:54:39.749Z,486
